sensor_id;sensor_type;location;lat;lon;timestamp;P1;durP1;ratioP1;P2;durP2;ratioP2
29984;SDS011;17387;42.690;23.328;2022-10-13T00:00:57;34.65;;;22.95;;
29984;SDS011;17387;42.690;23.328;2022-10-13T00:03:22;35.72;;;22.08;;
29984;SDS011;17387;42.690;23.328;2022-10-13T00:05:48;34.85;;;21.33;;
29984;SDS011;17387;42.690;23.328;2022-10-13T00:08:15;39.28;;;22.70;;
29984;SDS011;17387;42.690;23.328;2022-10-13T00:10:44;37.88;;;22.75;;
29984;SDS011;17387;42.690;23.328;2022-10-13T00:13:11;35.60;;;22.48;;
29984;SDS011;17387;42.690;23.328;2022-10-13T00:15:40;35.22;;;22.40;;
29984;SDS011;17387;42.690;23.328;2022-10-13T00:18:08;46.97;;;25.50;;
29984;SDS011;17387;42.690;23.328;2022-10-13T00:20:34;39.45;;;22.98;;
29984;SDS011;17387;42.690;23.328;2022-10-13T00:22:59;37.42;;;21.45;;
29984;SDS011;17387;42.690;23.328;2022-10-13T00:25:25;35.92;;;22.58;;
29984;SDS011;17387;42.690;23.328;2022-10-13T00:27:50;37.58;;;23.00;;
29984;SDS011;17387;42.690;23.328;2022-10-13T00:30:16;43.45;;;23.92;;
29984;SDS011;17387;42.690;23.328;2022-10-13T00:32:41;33.80;;;22.23;;
29984;SDS011;17387;42.690;23.328;2022-10-13T00:35:07;40.10;;;22.90;;
29984;SDS011;17387;42.690;23.328;2022-10-13T00:37:33;34.95;;;22.35;;
29984;SDS011;17387;42.690;23.328;2022-10-13T00:39:58;34.55;;;22.00;;
29984;SDS011;17387;42.690;23.328;2022-10-13T00:42:24;36.45;;;22.00;;
29984;SDS011;17387;42.690;23.328;2022-10-13T00:47:40;35.67;;;21.30;;
29984;SDS011;17387;42.690;23.328;2022-10-13T00:50:09;37.22;;;21.40;;
29984;SDS011;17387;42.690;23.328;2022-10-13T00:52:38;38.13;;;21.63;;
29984;SDS011;17387;42.690;23.328;2022-10-13T00:55:05;38.00;;;22.17;;
29984;SDS011;17387;42.690;23.328;2022-10-13T00:57:32;32.28;;;21.85;;
29984;SDS011;17387;42.690;23.328;2022-10-13T00:59:58;38.35;;;22.70;;
29984;SDS011;17387;42.690;23.328;2022-10-13T01:02:26;34.53;;;21.98;;
29984;SDS011;17387;42.690;23.328;2022-10-13T01:04:55;36.20;;;23.37;;
29984;SDS011;17387;42.690;23.328;2022-10-13T01:07:21;42.28;;;24.85;;
29984;SDS011;17387;42.690;23.328;2022-10-13T01:09:47;39.88;;;24.08;;
29984;SDS011;17387;42.690;23.328;2022-10-13T01:31:48;46.30;;;27.65;;
29984;SDS011;17387;42.690;23.328;2022-10-13T01:34:33;49.22;;;27.85;;
29984;SDS011;17387;42.690;23.328;2022-10-13T01:37:21;47.75;;;29.80;;
29984;SDS011;17387;42.690;23.328;2022-10-13T01:40:37;52.97;;;31.98;;
29984;SDS011;17387;42.690;23.328;2022-10-13T01:43:08;48.20;;;30.40;;
29984;SDS011;17387;42.690;23.328;2022-10-13T01:45:41;50.58;;;29.35;;
29984;SDS011;17387;42.690;23.328;2022-10-13T01:48:13;47.97;;;28.52;;
29984;SDS011;17387;42.690;23.328;2022-10-13T01:50:40;46.15;;;27.67;;
29984;SDS011;17387;42.690;23.328;2022-10-13T01:53:07;48.05;;;27.13;;
29984;SDS011;17387;42.690;23.328;2022-10-13T01:55:34;42.88;;;25.58;;
29984;SDS011;17387;42.690;23.328;2022-10-13T01:58:00;45.40;;;24.17;;
29984;SDS011;17387;42.690;23.328;2022-10-13T02:00:25;42.78;;;23.83;;
29984;SDS011;17387;42.690;23.328;2022-10-13T02:08:22;37.50;;;22.27;;
29984;SDS011;17387;42.690;23.328;2022-10-13T02:10:55;39.90;;;24.80;;
29984;SDS011;17387;42.690;23.328;2022-10-13T02:13:26;39.25;;;24.83;;
29984;SDS011;17387;42.690;23.328;2022-10-13T02:15:55;41.75;;;26.27;;
29984;SDS011;17387;42.690;23.328;2022-10-13T02:18:33;41.95;;;26.52;;
29984;SDS011;17387;42.690;23.328;2022-10-13T02:21:00;44.10;;;27.35;;
29984;SDS011;17387;42.690;23.328;2022-10-13T02:23:27;48.42;;;27.08;;
29984;SDS011;17387;42.690;23.328;2022-10-13T02:25:53;41.17;;;25.77;;
29984;SDS011;17387;42.690;23.328;2022-10-13T02:28:20;40.78;;;25.65;;
29984;SDS011;17387;42.690;23.328;2022-10-13T02:30:46;46.75;;;25.83;;
29984;SDS011;17387;42.690;23.328;2022-10-13T02:33:12;45.22;;;27.17;;
29984;SDS011;17387;42.690;23.328;2022-10-13T02:35:38;47.00;;;27.17;;
29984;SDS011;17387;42.690;23.328;2022-10-13T02:38:04;43.90;;;27.80;;
29984;SDS011;17387;42.690;23.328;2022-10-13T02:40:29;43.42;;;27.05;;
29984;SDS011;17387;42.690;23.328;2022-10-13T02:42:54;47.13;;;27.08;;
29984;SDS011;17387;42.690;23.328;2022-10-13T02:45:20;48.88;;;26.45;;
29984;SDS011;17387;42.690;23.328;2022-10-13T02:47:45;42.97;;;26.88;;
29984;SDS011;17387;42.690;23.328;2022-10-13T02:50:11;45.60;;;28.27;;
29984;SDS011;17387;42.690;23.328;2022-10-13T02:52:36;42.90;;;27.67;;
29984;SDS011;17387;42.690;23.328;2022-10-13T02:55:02;52.50;;;30.52;;
29984;SDS011;17387;42.690;23.328;2022-10-13T02:57:28;49.88;;;30.55;;
29984;SDS011;17387;42.690;23.328;2022-10-13T02:59:54;52.22;;;30.98;;
29984;SDS011;17387;42.690;23.328;2022-10-13T03:02:19;50.45;;;31.30;;
29984;SDS011;17387;42.690;23.328;2022-10-13T03:04:45;47.00;;;29.50;;
29984;SDS011;17387;42.690;23.328;2022-10-13T03:07:11;45.40;;;29.75;;
29984;SDS011;17387;42.690;23.328;2022-10-13T03:09:36;46.50;;;30.05;;
29984;SDS011;17387;42.690;23.328;2022-10-13T03:12:01;49.58;;;29.48;;
29984;SDS011;17387;42.690;23.328;2022-10-13T03:14:27;45.47;;;28.95;;
29984;SDS011;17387;42.690;23.328;2022-10-13T03:16:52;46.80;;;29.08;;
29984;SDS011;17387;42.690;23.328;2022-10-13T03:19:18;49.20;;;30.75;;
29984;SDS011;17387;42.690;23.328;2022-10-13T03:21:43;45.88;;;29.52;;
29984;SDS011;17387;42.690;23.328;2022-10-13T03:24:09;45.97;;;29.17;;
29984;SDS011;17387;42.690;23.328;2022-10-13T03:26:34;46.90;;;29.70;;
29984;SDS011;17387;42.690;23.328;2022-10-13T03:29:00;43.40;;;28.55;;
29984;SDS011;17387;42.690;23.328;2022-10-13T03:31:26;44.63;;;29.40;;
29984;SDS011;17387;42.690;23.328;2022-10-13T03:33:51;42.67;;;29.15;;
29984;SDS011;17387;42.690;23.328;2022-10-13T03:36:17;42.83;;;29.75;;
29984;SDS011;17387;42.690;23.328;2022-10-13T03:38:42;38.25;;;28.08;;
29984;SDS011;17387;42.690;23.328;2022-10-13T03:41:10;39.45;;;26.52;;
29984;SDS011;17387;42.690;23.328;2022-10-13T03:43:36;42.90;;;27.60;;
29984;SDS011;17387;42.690;23.328;2022-10-13T03:46:02;48.15;;;28.20;;
29984;SDS011;17387;42.690;23.328;2022-10-13T03:48:29;47.30;;;29.00;;
29984;SDS011;17387;42.690;23.328;2022-10-13T03:51:16;43.58;;;28.15;;
29984;SDS011;17387;42.690;23.328;2022-10-13T03:53:44;40.80;;;27.08;;
29984;SDS011;17387;42.690;23.328;2022-10-13T03:56:11;42.35;;;26.65;;
29984;SDS011;17387;42.690;23.328;2022-10-13T03:58:40;40.22;;;27.63;;
29984;SDS011;17387;42.690;23.328;2022-10-13T04:01:06;47.22;;;26.60;;
29984;SDS011;17387;42.690;23.328;2022-10-13T04:03:32;41.50;;;26.42;;
29984;SDS011;17387;42.690;23.328;2022-10-13T04:05:58;42.45;;;25.42;;
29984;SDS011;17387;42.690;23.328;2022-10-13T04:08:28;39.97;;;26.20;;
29984;SDS011;17387;42.690;23.328;2022-10-13T04:10:58;47.05;;;29.25;;
29984;SDS011;17387;42.690;23.328;2022-10-13T04:13:24;51.53;;;30.83;;
29984;SDS011;17387;42.690;23.328;2022-10-13T04:15:50;49.85;;;27.58;;
29984;SDS011;17387;42.690;23.328;2022-10-13T04:18:15;47.90;;;26.95;;
29984;SDS011;17387;42.690;23.328;2022-10-13T04:20:41;43.45;;;26.48;;
29984;SDS011;17387;42.690;23.328;2022-10-13T04:23:06;41.97;;;26.70;;
29984;SDS011;17387;42.690;23.328;2022-10-13T04:25:35;40.40;;;25.90;;
29984;SDS011;17387;42.690;23.328;2022-10-13T04:28:05;42.13;;;25.75;;
29984;SDS011;17387;42.690;23.328;2022-10-13T04:30:32;40.65;;;26.83;;
29984;SDS011;17387;42.690;23.328;2022-10-13T04:32:58;44.40;;;26.10;;
29984;SDS011;17387;42.690;23.328;2022-10-13T04:35:23;39.60;;;26.60;;
29984;SDS011;17387;42.690;23.328;2022-10-13T04:37:49;46.30;;;26.25;;
29984;SDS011;17387;42.690;23.328;2022-10-13T04:40:14;43.42;;;26.98;;
29984;SDS011;17387;42.690;23.328;2022-10-13T04:42:40;41.78;;;25.80;;
29984;SDS011;17387;42.690;23.328;2022-10-13T04:45:06;40.25;;;25.85;;
29984;SDS011;17387;42.690;23.328;2022-10-13T04:47:33;49.17;;;27.52;;
29984;SDS011;17387;42.690;23.328;2022-10-13T04:49:59;43.63;;;27.88;;
29984;SDS011;17387;42.690;23.328;2022-10-13T04:52:24;45.13;;;26.80;;
29984;SDS011;17387;42.690;23.328;2022-10-13T04:54:50;46.40;;;27.50;;
29984;SDS011;17387;42.690;23.328;2022-10-13T04:57:15;44.00;;;27.80;;
29984;SDS011;17387;42.690;23.328;2022-10-13T04:59:40;48.90;;;29.77;;
29984;SDS011;17387;42.690;23.328;2022-10-13T05:02:06;53.63;;;31.00;;
29984;SDS011;17387;42.690;23.328;2022-10-13T05:04:33;53.45;;;30.92;;
29984;SDS011;17387;42.690;23.328;2022-10-13T05:06:58;53.35;;;32.38;;
29984;SDS011;17387;42.690;23.328;2022-10-13T05:09:24;59.67;;;33.35;;
29984;SDS011;17387;42.690;23.328;2022-10-13T05:11:49;59.25;;;34.38;;
29984;SDS011;17387;42.690;23.328;2022-10-13T05:14:15;61.28;;;32.58;;
29984;SDS011;17387;42.690;23.328;2022-10-13T05:16:40;60.95;;;33.33;;
29984;SDS011;17387;42.690;23.328;2022-10-13T05:19:05;55.15;;;32.72;;
29984;SDS011;17387;42.690;23.328;2022-10-13T05:21:32;63.65;;;34.50;;
29984;SDS011;17387;42.690;23.328;2022-10-13T05:23:57;63.10;;;34.10;;
29984;SDS011;17387;42.690;23.328;2022-10-13T05:26:27;61.63;;;32.97;;
29984;SDS011;17387;42.690;23.328;2022-10-13T05:28:56;62.03;;;34.38;;
29984;SDS011;17387;42.690;23.328;2022-10-13T05:31:23;65.90;;;35.70;;
29984;SDS011;17387;42.690;23.328;2022-10-13T05:33:50;65.50;;;35.15;;
29984;SDS011;17387;42.690;23.328;2022-10-13T05:36:19;56.90;;;33.95;;
29984;SDS011;17387;42.690;23.328;2022-10-13T05:38:50;62.75;;;32.58;;
29984;SDS011;17387;42.690;23.328;2022-10-13T05:41:20;58.85;;;33.38;;
29984;SDS011;17387;42.690;23.328;2022-10-13T05:43:47;64.95;;;35.38;;
29984;SDS011;17387;42.690;23.328;2022-10-13T05:46:13;63.53;;;35.72;;
29984;SDS011;17387;42.690;23.328;2022-10-13T05:48:39;68.10;;;35.63;;
29984;SDS011;17387;42.690;23.328;2022-10-13T05:51:05;69.63;;;36.60;;
29984;SDS011;17387;42.690;23.328;2022-10-13T05:53:36;73.60;;;38.72;;
29984;SDS011;17387;42.690;23.328;2022-10-13T05:56:11;74.82;;;39.17;;
29984;SDS011;17387;42.690;23.328;2022-10-13T05:58:42;75.40;;;38.30;;
29984;SDS011;17387;42.690;23.328;2022-10-13T06:03:39;76.00;;;40.28;;
29984;SDS011;17387;42.690;23.328;2022-10-13T06:06:06;79.88;;;41.83;;
29984;SDS011;17387;42.690;23.328;2022-10-13T06:08:33;70.35;;;39.85;;
29984;SDS011;17387;42.690;23.328;2022-10-13T06:10:59;65.22;;;38.92;;
29984;SDS011;17387;42.690;23.328;2022-10-13T06:13:24;73.10;;;39.22;;
29984;SDS011;17387;42.690;23.328;2022-10-13T06:15:49;73.65;;;38.63;;
29984;SDS011;17387;42.690;23.328;2022-10-13T06:18:15;72.60;;;39.25;;
29984;SDS011;17387;42.690;23.328;2022-10-13T06:20:41;73.22;;;39.90;;
29984;SDS011;17387;42.690;23.328;2022-10-13T06:23:07;68.95;;;38.05;;
29984;SDS011;17387;42.690;23.328;2022-10-13T06:25:33;68.82;;;38.53;;
29984;SDS011;17387;42.690;23.328;2022-10-13T06:27:58;73.40;;;41.20;;
29984;SDS011;17387;42.690;23.328;2022-10-13T06:30:27;70.25;;;40.40;;
29984;SDS011;17387;42.690;23.328;2022-10-13T06:32:53;64.82;;;36.30;;
29984;SDS011;17387;42.690;23.328;2022-10-13T06:35:20;67.57;;;37.60;;
29984;SDS011;17387;42.690;23.328;2022-10-13T06:37:48;62.63;;;35.38;;
29984;SDS011;17387;42.690;23.328;2022-10-13T06:40:14;69.53;;;36.75;;
29984;SDS011;17387;42.690;23.328;2022-10-13T06:42:40;88.53;;;39.25;;
29984;SDS011;17387;42.690;23.328;2022-10-13T06:45:06;65.10;;;36.58;;
29984;SDS011;17387;42.690;23.328;2022-10-13T06:47:32;78.35;;;36.70;;
29984;SDS011;17387;42.690;23.328;2022-10-13T06:49:58;84.93;;;35.65;;
29984;SDS011;17387;42.690;23.328;2022-10-13T06:52:23;60.80;;;34.08;;
29984;SDS011;17387;42.690;23.328;2022-10-13T06:54:48;144.98;;;58.47;;
29984;SDS011;17387;42.690;23.328;2022-10-13T06:57:14;65.13;;;35.45;;
29984;SDS011;17387;42.690;23.328;2022-10-13T06:59:39;83.88;;;40.85;;
29984;SDS011;17387;42.690;23.328;2022-10-13T07:02:05;60.22;;;34.15;;
29984;SDS011;17387;42.690;23.328;2022-10-13T07:04:30;63.80;;;32.85;;
29984;SDS011;17387;42.690;23.328;2022-10-13T07:06:55;63.60;;;34.20;;
29984;SDS011;17387;42.690;23.328;2022-10-13T07:09:21;65.22;;;38.40;;
29984;SDS011;17387;42.690;23.328;2022-10-13T07:11:46;64.47;;;36.15;;
29984;SDS011;17387;42.690;23.328;2022-10-13T07:14:13;59.03;;;33.58;;
29984;SDS011;17387;42.690;23.328;2022-10-13T07:16:40;66.15;;;34.78;;
29984;SDS011;17387;42.690;23.328;2022-10-13T07:19:07;69.18;;;34.80;;
29984;SDS011;17387;42.690;23.328;2022-10-13T07:21:33;82.55;;;34.67;;
29984;SDS011;17387;42.690;23.328;2022-10-13T07:23:58;59.88;;;35.15;;
29984;SDS011;17387;42.690;23.328;2022-10-13T07:26:25;74.85;;;36.30;;
29984;SDS011;17387;42.690;23.328;2022-10-13T07:28:50;62.72;;;35.13;;
29984;SDS011;17387;42.690;23.328;2022-10-13T07:31:17;61.47;;;35.00;;
29984;SDS011;17387;42.690;23.328;2022-10-13T07:33:45;61.85;;;35.67;;
29984;SDS011;17387;42.690;23.328;2022-10-13T07:36:11;55.15;;;35.20;;
29984;SDS011;17387;42.690;23.328;2022-10-13T07:38:38;56.17;;;34.15;;
29984;SDS011;17387;42.690;23.328;2022-10-13T07:41:04;62.67;;;35.45;;
29984;SDS011;17387;42.690;23.328;2022-10-13T07:43:30;62.20;;;34.22;;
29984;SDS011;17387;42.690;23.328;2022-10-13T07:45:59;61.58;;;34.65;;
29984;SDS011;17387;42.690;23.328;2022-10-13T07:48:26;54.55;;;32.67;;
29984;SDS011;17387;42.690;23.328;2022-10-13T07:50:52;50.75;;;32.58;;
29984;SDS011;17387;42.690;23.328;2022-10-13T07:53:17;54.72;;;33.53;;
29984;SDS011;17387;42.690;23.328;2022-10-13T07:55:43;55.78;;;32.22;;
29984;SDS011;17387;42.690;23.328;2022-10-13T07:58:08;54.63;;;33.08;;
29984;SDS011;17387;42.690;23.328;2022-10-13T08:00:35;69.45;;;35.33;;
29984;SDS011;17387;42.690;23.328;2022-10-13T08:03:00;73.50;;;38.70;;
29984;SDS011;17387;42.690;23.328;2022-10-13T08:05:26;65.38;;;34.60;;
29984;SDS011;17387;42.690;23.328;2022-10-13T08:07:51;56.58;;;33.72;;
29984;SDS011;17387;42.690;23.328;2022-10-13T08:10:16;53.10;;;32.72;;
29984;SDS011;17387;42.690;23.328;2022-10-13T08:12:42;51.25;;;31.45;;
29984;SDS011;17387;42.690;23.328;2022-10-13T08:15:08;60.95;;;33.92;;
29984;SDS011;17387;42.690;23.328;2022-10-13T08:17:34;45.80;;;29.55;;
29984;SDS011;17387;42.690;23.328;2022-10-13T08:19:59;51.65;;;31.45;;
29984;SDS011;17387;42.690;23.328;2022-10-13T08:22:25;49.28;;;30.05;;
29984;SDS011;17387;42.690;23.328;2022-10-13T08:24:51;48.95;;;29.67;;
29984;SDS011;17387;42.690;23.328;2022-10-13T08:27:20;56.92;;;30.63;;
29984;SDS011;17387;42.690;23.328;2022-10-13T08:29:47;52.17;;;33.95;;
29984;SDS011;17387;42.690;23.328;2022-10-13T08:32:13;47.67;;;29.90;;
29984;SDS011;17387;42.690;23.328;2022-10-13T08:34:39;50.05;;;31.10;;
29984;SDS011;17387;42.690;23.328;2022-10-13T08:37:04;54.25;;;31.55;;
29984;SDS011;17387;42.690;23.328;2022-10-13T08:39:30;50.90;;;31.95;;
29984;SDS011;17387;42.690;23.328;2022-10-13T08:41:55;51.72;;;32.92;;
29984;SDS011;17387;42.690;23.328;2022-10-13T08:44:38;52.13;;;31.60;;
29984;SDS011;17387;42.690;23.328;2022-10-13T08:49:43;51.13;;;32.38;;
29984;SDS011;17387;42.690;23.328;2022-10-13T08:52:21;52.78;;;31.38;;
29984;SDS011;17387;42.690;23.328;2022-10-13T08:54:48;67.65;;;37.40;;
29984;SDS011;17387;42.690;23.328;2022-10-13T08:57:14;46.35;;;32.13;;
29984;SDS011;17387;42.690;23.328;2022-10-13T08:59:40;47.92;;;31.55;;
29984;SDS011;17387;42.690;23.328;2022-10-13T09:04:57;56.30;;;36.50;;
29984;SDS011;17387;42.690;23.328;2022-10-13T09:07:28;43.75;;;31.10;;
29984;SDS011;17387;42.690;23.328;2022-10-13T09:09:56;49.67;;;31.67;;
29984;SDS011;17387;42.690;23.328;2022-10-13T09:12:22;50.85;;;32.15;;
29984;SDS011;17387;42.690;23.328;2022-10-13T09:14:59;51.53;;;32.20;;
29984;SDS011;17387;42.690;23.328;2022-10-13T09:17:29;53.13;;;33.08;;
29984;SDS011;17387;42.690;23.328;2022-10-13T09:20:00;50.08;;;32.17;;
29984;SDS011;17387;42.690;23.328;2022-10-13T09:22:30;49.92;;;33.22;;
29984;SDS011;17387;42.690;23.328;2022-10-13T09:35:36;48.42;;;30.02;;
29984;SDS011;17387;42.690;23.328;2022-10-13T09:38:19;46.50;;;29.65;;
29984;SDS011;17387;42.690;23.328;2022-10-13T09:46:26;41.88;;;25.85;;
29984;SDS011;17387;42.690;23.328;2022-10-13T09:48:56;41.30;;;25.83;;
29984;SDS011;17387;42.690;23.328;2022-10-13T09:51:38;45.78;;;25.65;;
29984;SDS011;17387;42.690;23.328;2022-10-13T09:54:05;40.50;;;23.40;;
29984;SDS011;17387;42.690;23.328;2022-10-13T09:56:48;35.10;;;22.98;;
29984;SDS011;17387;42.690;23.328;2022-10-13T09:59:23;36.05;;;22.05;;
29984;SDS011;17387;42.690;23.328;2022-10-13T10:01:57;34.47;;;21.48;;
29984;SDS011;17387;42.690;23.328;2022-10-13T10:04:34;32.92;;;21.42;;
29984;SDS011;17387;42.690;23.328;2022-10-13T10:07:09;37.40;;;23.17;;
29984;SDS011;17387;42.690;23.328;2022-10-13T10:09:39;36.40;;;20.55;;
29984;SDS011;17387;42.690;23.328;2022-10-13T10:12:08;28.30;;;19.37;;
29984;SDS011;17387;42.690;23.328;2022-10-13T10:14:40;33.83;;;21.00;;
29984;SDS011;17387;42.690;23.328;2022-10-13T10:17:11;39.38;;;23.88;;
29984;SDS011;17387;42.690;23.328;2022-10-13T10:30:34;22.90;;;15.32;;
29984;SDS011;17387;42.690;23.328;2022-10-13T10:33:10;25.38;;;16.50;;
29984;SDS011;17387;42.690;23.328;2022-10-13T10:35:54;25.25;;;15.20;;
29984;SDS011;17387;42.690;23.328;2022-10-13T10:41:37;26.85;;;14.65;;
29984;SDS011;17387;42.690;23.328;2022-10-13T10:44:29;29.17;;;17.35;;
29984;SDS011;17387;42.690;23.328;2022-10-13T10:47:01;23.80;;;16.15;;
29984;SDS011;17387;42.690;23.328;2022-10-13T10:49:32;28.42;;;16.27;;
29984;SDS011;17387;42.690;23.328;2022-10-13T10:52:00;33.53;;;21.10;;
29984;SDS011;17387;42.690;23.328;2022-10-13T10:56:58;37.58;;;23.23;;
29984;SDS011;17387;42.690;23.328;2022-10-13T11:05:13;27.30;;;15.77;;
29984;SDS011;17387;42.690;23.328;2022-10-13T11:12:44;30.10;;;18.50;;
29984;SDS011;17387;42.690;23.328;2022-10-13T11:15:40;24.15;;;14.68;;
29984;SDS011;17387;42.690;23.328;2022-10-13T11:21:10;29.10;;;15.35;;
29984;SDS011;17387;42.690;23.328;2022-10-13T11:23:36;22.90;;;13.93;;
29984;SDS011;17387;42.690;23.328;2022-10-13T11:28:44;41.78;;;17.25;;
29984;SDS011;17387;42.690;23.328;2022-10-13T11:41:24;16.52;;;11.65;;
29984;SDS011;17387;42.690;23.328;2022-10-13T11:54:48;18.55;;;11.93;;
29984;SDS011;17387;42.690;23.328;2022-10-13T11:57:20;24.13;;;16.75;;
29984;SDS011;17387;42.690;23.328;2022-10-13T11:59:51;16.05;;;9.90;;
29984;SDS011;17387;42.690;23.328;2022-10-13T12:02:20;19.33;;;11.20;;
29984;SDS011;17387;42.690;23.328;2022-10-13T12:07:33;18.60;;;11.55;;
29984;SDS011;17387;42.690;23.328;2022-10-13T12:10:02;20.20;;;12.65;;
29984;SDS011;17387;42.690;23.328;2022-10-13T12:12:30;16.02;;;11.75;;
29984;SDS011;17387;42.690;23.328;2022-10-13T12:14:55;14.32;;;10.85;;
29984;SDS011;17387;42.690;23.328;2022-10-13T12:19:51;21.40;;;11.57;;
29984;SDS011;17387;42.690;23.328;2022-10-13T12:22:17;19.27;;;12.32;;
29984;SDS011;17387;42.690;23.328;2022-10-13T12:24:42;20.30;;;12.93;;
29984;SDS011;17387;42.690;23.328;2022-10-13T12:27:25;14.25;;;9.27;;
29984;SDS011;17387;42.690;23.328;2022-10-13T12:29:52;14.15;;;9.85;;
29984;SDS011;17387;42.690;23.328;2022-10-13T12:32:19;16.88;;;11.85;;
29984;SDS011;17387;42.690;23.328;2022-10-13T12:34:46;18.83;;;13.68;;
29984;SDS011;17387;42.690;23.328;2022-10-13T12:37:28;17.33;;;12.05;;
29984;SDS011;17387;42.690;23.328;2022-10-13T12:39:57;20.77;;;12.18;;
29984;SDS011;17387;42.690;23.328;2022-10-13T12:42:27;19.17;;;12.15;;
29984;SDS011;17387;42.690;23.328;2022-10-13T12:44:55;18.65;;;12.93;;
29984;SDS011;17387;42.690;23.328;2022-10-13T12:47:45;28.88;;;18.42;;
29984;SDS011;17387;42.690;23.328;2022-10-13T12:55:56;27.00;;;15.43;;
29984;SDS011;17387;42.690;23.328;2022-10-13T12:58:26;24.65;;;11.40;;
29984;SDS011;17387;42.690;23.328;2022-10-13T13:00:59;28.98;;;16.73;;
29984;SDS011;17387;42.690;23.328;2022-10-13T13:03:36;53.00;;;20.13;;
29984;SDS011;17387;42.690;23.328;2022-10-13T13:08:37;13.48;;;9.13;;
29984;SDS011;17387;42.690;23.328;2022-10-13T13:11:07;75.80;;;22.48;;
29984;SDS011;17387;42.690;23.328;2022-10-13T13:13:45;26.30;;;12.40;;
29984;SDS011;17387;42.690;23.328;2022-10-13T13:16:15;16.05;;;9.68;;
29984;SDS011;17387;42.690;23.328;2022-10-13T13:18:45;18.73;;;10.65;;
29984;SDS011;17387;42.690;23.328;2022-10-13T13:21:15;17.23;;;10.95;;
29984;SDS011;17387;42.690;23.328;2022-10-13T13:23:43;13.68;;;10.00;;
29984;SDS011;17387;42.690;23.328;2022-10-13T13:26:20;15.93;;;10.05;;
29984;SDS011;17387;42.690;23.328;2022-10-13T13:28:48;16.75;;;9.40;;
29984;SDS011;17387;42.690;23.328;2022-10-13T13:31:16;13.43;;;8.93;;
29984;SDS011;17387;42.690;23.328;2022-10-13T13:33:42;18.33;;;10.68;;
29984;SDS011;17387;42.690;23.328;2022-10-13T13:36:21;16.98;;;10.55;;
29984;SDS011;17387;42.690;23.328;2022-10-13T13:39:13;22.00;;;14.77;;
29984;SDS011;17387;42.690;23.328;2022-10-13T13:41:42;20.15;;;11.48;;
29984;SDS011;17387;42.690;23.328;2022-10-13T13:44:09;19.25;;;12.02;;
29984;SDS011;17387;42.690;23.328;2022-10-13T13:46:34;20.90;;;10.60;;
29984;SDS011;17387;42.690;23.328;2022-10-13T13:49:00;17.55;;;10.05;;
29984;SDS011;17387;42.690;23.328;2022-10-13T13:51:26;14.38;;;9.90;;
29984;SDS011;17387;42.690;23.328;2022-10-13T13:53:52;21.30;;;9.70;;
29984;SDS011;17387;42.690;23.328;2022-10-13T13:56:18;18.38;;;9.80;;
29984;SDS011;17387;42.690;23.328;2022-10-13T13:58:44;14.68;;;10.23;;
29984;SDS011;17387;42.690;23.328;2022-10-13T14:01:10;56.17;;;28.48;;
29984;SDS011;17387;42.690;23.328;2022-10-13T14:03:37;18.75;;;10.18;;
29984;SDS011;17387;42.690;23.328;2022-10-13T14:06:02;22.92;;;14.00;;
29984;SDS011;17387;42.690;23.328;2022-10-13T14:08:31;31.27;;;19.48;;
29984;SDS011;17387;42.690;23.328;2022-10-13T14:10:59;16.38;;;9.52;;
29984;SDS011;17387;42.690;23.328;2022-10-13T14:13:24;21.13;;;10.00;;
29984;SDS011;17387;42.690;23.328;2022-10-13T14:15:56;18.30;;;11.35;;
29984;SDS011;17387;42.690;23.328;2022-10-13T14:18:22;18.90;;;10.27;;
29984;SDS011;17387;42.690;23.328;2022-10-13T14:20:48;16.52;;;10.80;;
29984;SDS011;17387;42.690;23.328;2022-10-13T14:23:13;27.40;;;12.80;;
29984;SDS011;17387;42.690;23.328;2022-10-13T14:25:39;16.33;;;9.85;;
29984;SDS011;17387;42.690;23.328;2022-10-13T14:28:04;36.13;;;16.17;;
29984;SDS011;17387;42.690;23.328;2022-10-13T14:30:30;17.05;;;12.25;;
29984;SDS011;17387;42.690;23.328;2022-10-13T14:32:55;28.05;;;16.13;;
29984;SDS011;17387;42.690;23.328;2022-10-13T14:35:21;21.42;;;12.88;;
29984;SDS011;17387;42.690;23.328;2022-10-13T14:37:46;26.88;;;17.25;;
29984;SDS011;17387;42.690;23.328;2022-10-13T14:40:11;31.83;;;17.08;;
29984;SDS011;17387;42.690;23.328;2022-10-13T14:42:37;15.63;;;11.00;;
29984;SDS011;17387;42.690;23.328;2022-10-13T14:45:04;23.00;;;13.68;;
29984;SDS011;17387;42.690;23.328;2022-10-13T14:47:30;36.17;;;21.90;;
29984;SDS011;17387;42.690;23.328;2022-10-13T14:49:56;25.83;;;16.45;;
29984;SDS011;17387;42.690;23.328;2022-10-13T14:52:21;17.95;;;11.65;;
29984;SDS011;17387;42.690;23.328;2022-10-13T14:54:47;12.77;;;8.45;;
29984;SDS011;17387;42.690;23.328;2022-10-13T14:57:12;14.05;;;9.00;;
29984;SDS011;17387;42.690;23.328;2022-10-13T14:59:39;15.30;;;9.60;;
29984;SDS011;17387;42.690;23.328;2022-10-13T15:02:05;18.83;;;9.50;;
29984;SDS011;17387;42.690;23.328;2022-10-13T15:04:31;17.13;;;10.07;;
29984;SDS011;17387;42.690;23.328;2022-10-13T15:06:56;16.58;;;9.70;;
29984;SDS011;17387;42.690;23.328;2022-10-13T15:09:22;12.32;;;8.45;;
29984;SDS011;17387;42.690;23.328;2022-10-13T15:11:47;13.35;;;8.75;;
29984;SDS011;17387;42.690;23.328;2022-10-13T15:14:13;18.70;;;10.68;;
29984;SDS011;17387;42.690;23.328;2022-10-13T15:16:38;11.30;;;8.25;;
29984;SDS011;17387;42.690;23.328;2022-10-13T15:19:04;14.57;;;8.82;;
29984;SDS011;17387;42.690;23.328;2022-10-13T15:21:30;13.55;;;9.25;;
29984;SDS011;17387;42.690;23.328;2022-10-13T15:23:55;19.15;;;9.30;;
29984;SDS011;17387;42.690;23.328;2022-10-13T15:26:21;15.18;;;9.27;;
29984;SDS011;17387;42.690;23.328;2022-10-13T15:28:48;20.55;;;10.02;;
29984;SDS011;17387;42.690;23.328;2022-10-13T15:31:16;23.25;;;12.50;;
29984;SDS011;17387;42.690;23.328;2022-10-13T15:33:50;20.05;;;12.65;;
29984;SDS011;17387;42.690;23.328;2022-10-13T15:36:26;20.73;;;12.25;;
29984;SDS011;17387;42.690;23.328;2022-10-13T15:38:52;13.82;;;9.35;;
29984;SDS011;17387;42.690;23.328;2022-10-13T15:41:19;25.23;;;12.65;;
29984;SDS011;17387;42.690;23.328;2022-10-13T15:44:06;25.67;;;12.25;;
29984;SDS011;17387;42.690;23.328;2022-10-13T15:46:41;18.73;;;9.85;;
29984;SDS011;17387;42.690;23.328;2022-10-13T15:49:21;18.52;;;8.82;;
29984;SDS011;17387;42.690;23.328;2022-10-13T15:51:47;14.60;;;10.10;;
29984;SDS011;17387;42.690;23.328;2022-10-13T15:54:13;18.63;;;8.98;;
29984;SDS011;17387;42.690;23.328;2022-10-13T15:56:39;16.85;;;9.30;;
29984;SDS011;17387;42.690;23.328;2022-10-13T15:59:04;16.80;;;9.63;;
29984;SDS011;17387;42.690;23.328;2022-10-13T16:01:30;28.33;;;15.90;;
29984;SDS011;17387;42.690;23.328;2022-10-13T16:03:55;11.05;;;8.52;;
29984;SDS011;17387;42.690;23.328;2022-10-13T16:06:21;20.30;;;11.40;;
29984;SDS011;17387;42.690;23.328;2022-10-13T16:08:46;21.33;;;13.05;;
29984;SDS011;17387;42.690;23.328;2022-10-13T16:11:13;14.52;;;9.50;;
29984;SDS011;17387;42.690;23.328;2022-10-13T16:13:40;15.60;;;9.68;;
29984;SDS011;17387;42.690;23.328;2022-10-13T16:16:10;21.83;;;12.02;;